createdAt,value
2017-04-30T00:00:59.002Z,35.03
2017-04-30T00:01:58.718Z,35.61
2017-04-30T00:02:59.311Z,35.22
2017-04-30T00:03:59.079Z,35.61
2017-04-30T00:04:59.109Z,35.32
2017-04-30T00:05:59.138Z,35.32
2017-04-30T00:06:59.166Z,35.42
2017-04-30T00:07:59.444Z,35.13
2017-04-30T00:08:59.211Z,35.32
2017-04-30T00:09:59.245Z,35.22
2017-04-30T00:10:58.957Z,35.13
2017-04-30T00:11:59.307Z,35.32
2017-04-30T00:12:59.579Z,34.94
2017-04-30T00:13:59.350Z,34.94
2017-04-30T00:14:59.381Z,35.22
2017-04-30T00:15:59.405Z,35.52
2017-04-30T00:16:59.126Z,35.13
2017-04-30T00:17:59.714Z,35.22
2017-04-30T00:18:59.489Z,35.03
2017-04-30T00:19:59.518Z,35.42
2017-04-30T00:20:59.234Z,35.32
2017-04-30T00:21:59.571Z,35.22
2017-04-30T00:22:59.535Z,35.52
2017-04-30T00:23:59.313Z,35.32
2017-04-30T00:24:59.653Z,35.42
2017-04-30T00:25:59.681Z,35.32
2017-04-30T00:26:59.714Z,35.42
2017-04-30T00:27:59.992Z,35.22
2017-04-30T00:28:59.761Z,35.42
2017-04-30T00:29:59.794Z,35.32
2017-04-30T00:30:59.818Z,35.22
2017-04-30T00:31:59.838Z,35.22
2017-04-30T00:33:00.119Z,35.32
2017-04-30T00:33:59.901Z,35.32
2017-04-30T00:34:59.925Z,35.22
2017-04-30T00:35:59.959Z,35.22
2017-04-30T00:36:59.977Z,35.22
2017-04-30T00:38:00.254Z,35.22
2017-04-30T00:39:00.032Z,35.22
2017-04-30T00:40:00.050Z,35.42
2017-04-30T00:41:00.089Z,35.32
2017-04-30T00:42:00.113Z,35.22
2017-04-30T00:43:00.143Z,35.42
2017-04-30T00:44:00.172Z,35.22
2017-04-30T00:45:00.189Z,35.22
2017-04-30T00:45:59.910Z,35.42
2017-04-30T00:47:00.246Z,35.03
2017-04-30T00:48:00.283Z,35.42
2017-04-30T00:48:59.991Z,35.22
2017-04-30T00:50:00.328Z,35.22
2017-04-30T00:51:00.045Z,35.42
2017-04-30T00:52:00.070Z,35.22
2017-04-30T00:53:00.410Z,35.22
2017-04-30T00:54:00.436Z,35.42
2017-04-30T00:55:00.463Z,35.22
2017-04-30T00:56:00.494Z,35.22
2017-04-30T00:57:00.517Z,35.22
2017-04-30T00:58:00.546Z,35.22
2017-04-30T00:59:00.571Z,35.22
2017-04-30T01:00:00.607Z,35.32
2017-04-30T01:01:00.625Z,35.22
2017-04-30T01:02:00.657Z,35.03
2017-04-30T01:03:00.366Z,35.13
2017-04-30T01:04:00.706Z,35.03
2017-04-30T01:05:00.735Z,35.32
2017-04-30T01:06:00.761Z,35.22
2017-04-30T01:07:00.790Z,35.22
2017-04-30T01:08:00.811Z,35.13
2017-04-30T01:09:00.843Z,35.13
2017-04-30T01:10:00.863Z,35.22
2017-04-30T01:11:00.892Z,35.32
2017-04-30T01:12:00.917Z,35.32
2017-04-30T01:13:00.639Z,35.13
2017-04-30T01:14:00.978Z,35.32
2017-04-30T01:15:01.004Z,35.22
2017-04-30T01:16:01.025Z,35.22
2017-04-30T01:17:00.746Z,35.22
2017-04-30T01:18:01.087Z,35.32
2017-04-30T01:19:00.798Z,35.61
2017-04-30T01:20:01.147Z,35.22
2017-04-30T01:21:01.161Z,35.32
2017-04-30T01:22:01.193Z,35.42
2017-04-30T01:23:01.219Z,35.32
2017-04-30T01:24:01.241Z,35.52
2017-04-30T01:25:00.958Z,35.42
2017-04-30T01:26:01.298Z,35.22
2017-04-30T01:27:01.328Z,35.71
2017-04-30T01:28:01.357Z,35.42
2017-04-30T01:29:01.388Z,35.71
2017-04-30T01:30:01.404Z,35.52
2017-04-30T01:31:01.120Z,35.42
2017-04-30T01:32:01.461Z,35.22
2017-04-30T01:33:01.495Z,35.42
2017-04-30T01:34:01.515Z,35.32
2017-04-30T01:35:01.544Z,36.19
2017-04-30T01:36:01.566Z,35.71
2017-04-30T01:37:01.598Z,35.8
2017-04-30T01:38:01.625Z,35.42
2017-04-30T01:39:01.654Z,35.32
2017-04-30T01:40:01.670Z,35.42
2017-04-30T01:41:01.735Z,35.32
2017-04-30T01:42:01.729Z,35.22
2017-04-30T01:43:01.757Z,35.42
2017-04-30T01:44:01.791Z,35.42
2017-04-30T01:45:01.500Z,35.42
2017-04-30T01:46:01.575Z,35.42
2017-04-30T01:47:01.862Z,35.61
2017-04-30T01:48:01.905Z,35.32
2017-04-30T01:49:01.919Z,35.71
2017-04-30T01:50:01.948Z,35.42
2017-04-30T01:51:01.972Z,35.71
2017-04-30T01:52:01.997Z,35.32
2017-04-30T01:53:02.026Z,35.42
2017-04-30T01:54:02.051Z,35.32
2017-04-30T01:55:01.767Z,35.42
2017-04-30T01:56:02.105Z,35.32
2017-04-30T01:57:02.137Z,35.32
2017-04-30T01:58:02.183Z,35.42
2017-04-30T01:59:02.190Z,35.42
2017-04-30T02:00:02.215Z,35.32
2017-04-30T02:01:01.928Z,35.32
2017-04-30T02:02:02.269Z,35.32
2017-04-30T02:03:04.086Z,35.8
2017-04-30T02:04:02.009Z,35.71
2017-04-30T02:05:02.342Z,35.13
2017-04-30T02:06:02.375Z,35.32
2017-04-30T02:07:02.404Z,35.71
2017-04-30T02:08:02.112Z,35.32
2017-04-30T02:09:02.709Z,35.52
2017-04-30T02:10:02.490Z,34.94
2017-04-30T02:11:02.511Z,35.61
2017-04-30T02:12:02.536Z,35.32
2017-04-30T02:13:02.561Z,35.42
2017-04-30T02:14:02.534Z,35.32
2017-04-30T02:15:02.622Z,35.32
2017-04-30T02:16:02.331Z,35.22
2017-04-30T02:17:02.668Z,35.61
2017-04-30T02:18:02.698Z,35.42
2017-04-30T02:19:02.666Z,35.32
2017-04-30T02:20:02.481Z,35.42
2017-04-30T02:21:02.776Z,35.42
2017-04-30T02:22:02.804Z,35.42
2017-04-30T02:23:02.833Z,35.32
2017-04-30T02:24:03.115Z,35.42
2017-04-30T02:25:02.575Z,35.32
2017-04-30T02:26:02.915Z,35.32
2017-04-30T02:27:02.940Z,35.42
2017-04-30T02:28:02.968Z,35.42
2017-04-30T02:29:03.258Z,35.32
2017-04-30T02:30:03.023Z,35.71
2017-04-30T02:31:03.052Z,35.32
2017-04-30T02:32:03.076Z,35.32
2017-04-30T02:33:03.095Z,35.42
2017-04-30T02:34:03.121Z,35.22
2017-04-30T02:35:03.157Z,35.61
2017-04-30T02:36:03.182Z,35.42
2017-04-30T02:37:03.212Z,35.71
2017-04-30T02:38:02.923Z,35.32
2017-04-30T02:39:02.954Z,35.13
2017-04-30T02:40:02.973Z,35.32
2017-04-30T02:41:03.007Z,35.32
2017-04-30T02:42:03.344Z,35.52
2017-04-30T02:43:03.372Z,35.32
2017-04-30T02:44:03.393Z,35.22
2017-04-30T02:45:03.115Z,35.71
2017-04-30T02:46:03.143Z,35.52
2017-04-30T02:47:03.479Z,35.32
2017-04-30T02:48:03.501Z,36.09
2017-04-30T02:49:03.533Z,35.61
2017-04-30T02:50:03.563Z,35.61
2017-04-30T02:51:03.279Z,36
2017-04-30T02:52:03.295Z,35.61
2017-04-30T02:53:03.649Z,35.52
2017-04-30T02:54:18.500Z,35.71
2017-04-30T02:55:03.373Z,35.61
2017-04-30T02:56:03.408Z,35.61
2017-04-30T02:57:03.747Z,35.42
2017-04-30T02:58:03.772Z,35.42
2017-04-30T02:59:03.802Z,35.52
2017-04-30T03:00:03.766Z,35.4
2017-04-30T03:01:03.543Z,35.8
2017-04-30T03:02:03.879Z,35.4
2017-04-30T03:03:03.908Z,35.42
2017-04-30T03:04:03.937Z,35.52
2017-04-30T03:05:03.899Z,35.8
2017-04-30T03:06:03.986Z,35.32
2017-04-30T03:07:04.015Z,35.42
2017-04-30T03:08:04.050Z,35.32
2017-04-30T03:09:04.068Z,35.61
2017-04-30T03:10:04.034Z,36.09
2017-04-30T03:11:03.810Z,35.71
2017-04-30T03:12:04.150Z,35.61
2017-04-30T03:13:04.172Z,35.59
2017-04-30T03:14:04.202Z,36.19
2017-04-30T03:15:04.479Z,36.07
2017-04-30T03:16:03.946Z,35.98
2017-04-30T03:17:04.282Z,36.09
2017-04-30T03:18:04.316Z,36
2017-04-30T03:19:04.329Z,36
2017-04-30T03:20:04.614Z,36
2017-04-30T03:21:04.387Z,36.09
2017-04-30T03:22:04.420Z,35.98
2017-04-30T03:23:04.448Z,35.9
2017-04-30T03:24:04.468Z,35.22
2017-04-30T03:25:04.751Z,36.07
2017-04-30T03:26:04.522Z,35.9
2017-04-30T03:27:04.551Z,36
2017-04-30T03:28:04.579Z,35.4
2017-04-30T03:29:04.293Z,35.71
2017-04-30T03:30:04.885Z,35.71
2017-04-30T03:31:04.655Z,36.09
2017-04-30T03:32:04.687Z,35.13
2017-04-30T03:33:04.709Z,36.09
2017-04-30T03:34:04.428Z,36.07
2017-04-30T03:35:05.029Z,36
2017-04-30T03:36:04.795Z,36.19
2017-04-30T03:37:04.833Z,34.94
2017-04-30T03:38:04.847Z,35.61
2017-04-30T03:39:04.873Z,35.71
2017-04-30T03:40:04.841Z,35.5
2017-04-30T03:41:04.614Z,35.52
2017-04-30T03:42:04.638Z,35.78
2017-04-30T03:43:04.980Z,35.8
2017-04-30T03:44:04.685Z,35.8
2017-04-30T03:45:05.273Z,35.4
2017-04-30T03:46:05.062Z,35.61
2017-04-30T03:47:05.082Z,35.52
2017-04-30T03:48:05.116Z,35.42
2017-04-30T03:49:05.140Z,35.32
2017-04-30T03:50:05.173Z,35.32
2017-04-30T03:51:05.201Z,35.22
2017-04-30T03:52:05.226Z,35.21
2017-04-30T03:53:05.246Z,35.42
2017-04-30T03:54:05.276Z,35.61
2017-04-30T03:55:05.297Z,35.11
2017-04-30T03:56:05.334Z,35.59
2017-04-30T03:57:05.352Z,35.52
2017-04-30T03:58:05.383Z,35.21
2017-04-30T03:59:05.103Z,35.4
2017-04-30T04:00:05.433Z,35.3
2017-04-30T04:01:05.468Z,35.4
2017-04-30T04:02:05.490Z,35.4
2017-04-30T04:03:05.516Z,35.4
2017-04-30T04:04:05.228Z,35.4
2017-04-30T04:05:05.565Z,35.5
2017-04-30T04:06:05.600Z,35.88
2017-04-30T04:07:05.626Z,35.3
2017-04-30T04:08:05.651Z,35.5
2017-04-30T04:09:05.676Z,35.88
2017-04-30T04:10:05.705Z,35.59
2017-04-30T04:11:05.729Z,35.59
2017-04-30T04:12:05.757Z,35.59
2017-04-30T04:13:05.471Z,35.59
2017-04-30T04:14:05.817Z,35.59
2017-04-30T04:15:05.524Z,35.59
2017-04-30T04:16:05.874Z,35.5
2017-04-30T04:17:05.575Z,35.78
2017-04-30T04:18:05.604Z,35.5
2017-04-30T04:19:05.948Z,35.3
2017-04-30T04:20:05.969Z,35.59
2017-04-30T04:21:05.998Z,35.3
2017-04-30T04:22:05.713Z,35.4
2017-04-30T04:23:06.051Z,35.78
2017-04-30T04:24:05.760Z,35.3
2017-04-30T04:25:05.796Z,35.4
2017-04-30T04:26:05.817Z,35.59
2017-04-30T04:27:05.846Z,35.59
2017-04-30T04:28:06.187Z,35.4
2017-04-30T04:29:05.904Z,35.32
2017-04-30T04:30:05.917Z,35.4
2017-04-30T04:31:06.266Z,35.4
2017-04-30T04:32:06.290Z,35.22
2017-04-30T04:33:06.318Z,35.4
2017-04-30T04:34:06.344Z,35.3
2017-04-30T04:35:06.058Z,35.59
2017-04-30T04:36:06.086Z,35.3
2017-04-30T04:37:06.421Z,35.21
2017-04-30T04:38:06.444Z,35.4
2017-04-30T04:39:06.475Z,35.3
2017-04-30T04:40:06.499Z,35.32
2017-04-30T04:41:06.225Z,35.52
2017-04-30T04:42:06.556Z,35.8
2017-04-30T04:43:06.275Z,35.42
2017-04-30T04:44:06.607Z,35.61
2017-04-30T04:45:06.640Z,35.32
2017-04-30T04:46:06.665Z,35.13
2017-04-30T04:47:06.695Z,35.22
2017-04-30T04:48:06.719Z,35.21
2017-04-30T04:49:06.791Z,35.22
2017-04-30T04:50:06.772Z,35.22
2017-04-30T04:51:06.800Z,35.03
2017-04-30T04:52:06.824Z,35.42
2017-04-30T04:53:06.851Z,35.32
2017-04-30T04:54:06.565Z,35.42
2017-04-30T04:55:06.908Z,35.32
2017-04-30T04:56:06.932Z,35.32
2017-04-30T04:57:06.958Z,35.03
2017-04-30T04:58:06.983Z,34.94
2017-04-30T04:59:07.012Z,35.32
2017-04-30T05:00:07.035Z,35.13
2017-04-30T05:01:07.064Z,34.94
2017-04-30T05:02:07.094Z,34.94
2017-04-30T05:03:07.118Z,34.94
2017-04-30T05:04:07.147Z,35.03
2017-04-30T05:05:07.173Z,35.13
2017-04-30T05:06:07.196Z,35.03
2017-04-30T05:07:07.225Z,35.13
2017-04-30T05:08:06.942Z,35.03
2017-04-30T05:09:07.278Z,34.94
2017-04-30T05:10:06.991Z,35.13
2017-04-30T05:11:07.326Z,34.84
2017-04-30T05:12:07.369Z,34.84
2017-04-30T05:13:07.382Z,34.94
2017-04-30T05:14:07.411Z,35.03
2017-04-30T05:15:07.132Z,34.84
2017-04-30T05:16:07.153Z,35.13
2017-04-30T05:17:07.494Z,35.13
2017-04-30T05:18:07.518Z,34.84
2017-04-30T05:19:07.550Z,34.94
2017-04-30T05:20:07.566Z,34.94
2017-04-30T05:21:07.597Z,34.94
2017-04-30T05:22:07.617Z,34.84
2017-04-30T05:23:07.659Z,34.94
2017-04-30T05:24:07.680Z,34.74
2017-04-30T05:25:07.708Z,34.84
2017-04-30T05:26:07.731Z,35.13
2017-04-30T05:27:07.760Z,35.22
2017-04-30T05:28:07.784Z,35.22
2017-04-30T05:29:07.815Z,34.94
2017-04-30T05:30:07.842Z,35.22
2017-04-30T05:31:07.868Z,35.13
2017-04-30T05:32:07.581Z,35.42
2017-04-30T05:33:07.922Z,34.84
2017-04-30T05:34:07.946Z,35.32
2017-04-30T05:35:07.663Z,35.42
2017-04-30T05:36:08.004Z,34.94
2017-04-30T05:37:08.025Z,35.14
2017-04-30T05:38:08.058Z,35.32
2017-04-30T05:39:07.764Z,35.24
2017-04-30T05:40:08.115Z,35.05
2017-04-30T05:41:08.136Z,35.05
2017-04-30T05:42:08.156Z,34.95
2017-04-30T05:43:08.190Z,35.05
2017-04-30T05:44:07.906Z,35.05
2017-04-30T05:45:08.242Z,34.76
2017-04-30T05:46:08.275Z,35.14
2017-04-30T05:47:08.293Z,35.24
2017-04-30T05:48:08.323Z,35.05
2017-04-30T05:49:08.350Z,35.05
2017-04-30T05:50:08.067Z,35.05
2017-04-30T05:51:08.405Z,34.56
2017-04-30T05:52:08.425Z,35.24
2017-04-30T05:53:08.149Z,34.66
2017-04-30T05:54:08.483Z,34.66
2017-04-30T05:55:08.520Z,34.86
2017-04-30T05:56:08.783Z,34.66
2017-04-30T05:57:08.576Z,34.86
2017-04-30T05:58:08.594Z,34.76
2017-04-30T05:59:08.620Z,34.76
2017-04-30T06:00:08.335Z,34.76
2017-04-30T06:01:08.927Z,34.86
2017-04-30T06:02:08.709Z,34.38
2017-04-30T06:03:08.735Z,34.86
2017-04-30T06:04:08.775Z,34.86
2017-04-30T06:05:08.783Z,35.05
2017-04-30T06:06:09.056Z,34.86
2017-04-30T06:07:08.523Z,34.86
2017-04-30T06:08:08.549Z,34.86
2017-04-30T06:09:08.886Z,34.76
2017-04-30T06:10:08.919Z,35.24
2017-04-30T06:11:09.193Z,34.95
2017-04-30T06:12:08.968Z,34.56
2017-04-30T06:13:08.993Z,34.56
2017-04-30T06:14:09.031Z,34.38
2017-04-30T06:15:09.057Z,34.38
2017-04-30T06:16:09.332Z,34.38
2017-04-30T06:17:09.100Z,34.38
2017-04-30T06:18:09.134Z,34.47
2017-04-30T06:19:08.847Z,34.47
2017-04-30T06:20:08.875Z,34.47
2017-04-30T06:21:09.212Z,34.18
2017-04-30T06:22:09.241Z,34.38
2017-04-30T06:23:09.266Z,34.47
2017-04-30T06:24:09.294Z,34.38
2017-04-30T06:25:09.323Z,34.58
2017-04-30T06:26:09.347Z,34.39
2017-04-30T06:27:09.377Z,34.56
2017-04-30T06:28:09.398Z,34.28
2017-04-30T06:29:09.115Z,34.18
2017-04-30T06:30:09.455Z,34.29
2017-04-30T06:31:09.173Z,34.18
2017-04-30T06:32:09.201Z,34.18
2017-04-30T06:33:09.542Z,34.1
2017-04-30T06:34:09.561Z,34.18
2017-04-30T06:35:09.591Z,34
2017-04-30T06:36:09.624Z,34
2017-04-30T06:37:09.644Z,34.1
2017-04-30T06:38:09.673Z,34.2
2017-04-30T06:39:09.706Z,34.2
2017-04-30T06:40:09.727Z,34.2
2017-04-30T06:41:09.759Z,34
2017-04-30T06:42:09.783Z,34
2017-04-30T06:43:09.807Z,34.29
2017-04-30T06:44:09.521Z,34.2
2017-04-30T06:45:09.857Z,34.39
2017-04-30T06:46:09.894Z,34.2
2017-04-30T06:47:09.916Z,34.39
2017-04-30T06:48:09.941Z,34.48
2017-04-30T06:49:09.652Z,34.29
2017-04-30T06:50:10.002Z,34.29
2017-04-30T06:51:10.027Z,34.39
2017-04-30T06:52:09.744Z,34.29
2017-04-30T06:53:10.080Z,34.39
2017-04-30T06:54:09.794Z,34.39
2017-04-30T06:55:10.138Z,34.48
2017-04-30T06:56:10.162Z,34.29
2017-04-30T06:57:10.176Z,34.58
2017-04-30T06:58:09.909Z,34.1
2017-04-30T06:59:10.246Z,34
2017-04-30T07:00:09.959Z,33.81
2017-04-30T07:01:10.299Z,34
2017-04-30T07:02:10.324Z,33.72
2017-04-30T07:03:10.046Z,33.91
2017-04-30T07:04:10.377Z,33.91
2017-04-30T07:05:10.398Z,33.81
2017-04-30T07:06:10.435Z,33.91
2017-04-30T07:07:10.153Z,33.72
2017-04-30T07:08:10.489Z,34
2017-04-30T07:09:10.518Z,34.58
2017-04-30T07:10:10.541Z,34.1
2017-04-30T07:11:10.567Z,33.81
2017-04-30T07:12:10.595Z,34.21
2017-04-30T07:13:10.625Z,34.39
2017-04-30T07:14:10.346Z,34.5
2017-04-30T07:15:10.671Z,34.41
2017-04-30T07:16:10.708Z,34.5
2017-04-30T07:17:10.732Z,34.41
2017-04-30T07:18:10.761Z,34.41
2017-04-30T07:19:10.794Z,34.41
2017-04-30T07:20:10.821Z,34.12
2017-04-30T07:21:10.527Z,34.41
2017-04-30T07:22:10.873Z,34.31
2017-04-30T07:23:10.896Z,34.41
2017-04-30T07:24:10.921Z,34.21
2017-04-30T07:25:10.954Z,34.6
2017-04-30T07:26:10.976Z,34.21
2017-04-30T07:27:10.696Z,34.41
2017-04-30T07:28:11.036Z,34.5
2017-04-30T07:29:11.066Z,34.5
2017-04-30T07:30:11.091Z,34.6
2017-04-30T07:31:11.120Z,34.5
2017-04-30T07:32:11.392Z,34.7
2017-04-30T07:33:11.172Z,34.31
2017-04-30T07:34:11.190Z,34.5
2017-04-30T07:35:11.227Z,34.48
2017-04-30T07:36:11.250Z,35.37
2017-04-30T07:37:11.541Z,34.78
2017-04-30T07:38:11.311Z,35.26
2017-04-30T07:39:11.021Z,34.48
2017-04-30T07:40:11.078Z,34.87
2017-04-30T07:41:11.078Z,34.78
2017-04-30T07:42:11.672Z,34.68
2017-04-30T07:43:11.133Z,34.48
2017-04-30T07:44:11.157Z,34.48
2017-04-30T07:45:11.497Z,34.39
2017-04-30T07:46:11.526Z,34.2
2017-04-30T07:47:11.802Z,34.39
2017-04-30T07:48:11.583Z,34.58
2017-04-30T07:49:11.620Z,34.58
2017-04-30T07:50:11.325Z,34.58
2017-04-30T07:51:11.661Z,34.58
2017-04-30T07:52:11.631Z,34.58
2017-04-30T07:53:11.725Z,34.58
2017-04-30T07:54:11.747Z,34.68
2017-04-30T07:55:11.778Z,34.78
2017-04-30T07:56:11.802Z,34.78
2017-04-30T07:57:12.073Z,34.78
2017-04-30T07:58:11.857Z,34.29
2017-04-30T07:59:11.575Z,34.48
2017-04-30T08:00:11.910Z,34.87
2017-04-30T08:01:11.938Z,34.39
2017-04-30T08:02:12.217Z,34.39
2017-04-30T08:03:11.684Z,34.58
2017-04-30T08:04:11.708Z,34.68
2017-04-30T08:05:12.050Z,34.68
2017-04-30T08:06:11.757Z,34.48
2017-04-30T08:07:12.355Z,34.39
2017-04-30T08:08:11.821Z,34.68
2017-04-30T08:09:12.161Z,34.48
2017-04-30T08:10:12.186Z,34.68
2017-04-30T08:11:12.209Z,34.87
2017-04-30T08:12:12.240Z,34.58
2017-04-30T08:13:12.268Z,34.97
2017-04-30T08:14:12.303Z,34.97
2017-04-30T08:15:12.322Z,34.87
2017-04-30T08:16:12.382Z,35.26
2017-04-30T08:17:12.371Z,35.06
2017-04-30T08:18:12.097Z,34.87
2017-04-30T08:19:12.431Z,34.68
2017-04-30T08:20:12.461Z,34.68
2017-04-30T08:21:12.483Z,34.68
2017-04-30T08:22:12.514Z,34.97
2017-04-30T08:23:12.547Z,32.67
2017-04-30T08:24:12.573Z,33.05
2017-04-30T08:25:12.286Z,32.96
2017-04-30T08:26:12.626Z,32.38
2017-04-30T08:27:12.337Z,32.28
2017-04-30T08:28:12.680Z,32.18
2017-04-30T08:29:12.704Z,31.7
2017-04-30T08:30:12.733Z,31.1
2017-04-30T08:31:12.757Z,30.62
2017-04-30T08:32:12.787Z,30.54
2017-04-30T08:33:12.817Z,29.85
2017-04-30T08:34:12.534Z,30.24
2017-04-30T08:35:12.870Z,30.52
2017-04-30T08:36:12.897Z,30.33
2017-04-30T08:37:12.930Z,29.75
2017-04-30T08:38:12.633Z,29.27
2017-04-30T08:39:12.982Z,29.85
2017-04-30T08:40:13.010Z,29.36
2017-04-30T08:41:13.029Z,29.56
2017-04-30T08:42:13.063Z,29.46
2017-04-30T08:43:12.776Z,29.46
2017-04-30T08:44:13.120Z,29.66
2017-04-30T08:45:13.180Z,30.24
2017-04-30T08:46:13.166Z,29.85
2017-04-30T08:47:13.202Z,30.24
2017-04-30T08:48:13.240Z,29.85
2017-04-30T08:49:13.257Z,29.85
2017-04-30T08:50:13.287Z,30.72
2017-04-30T08:51:13.305Z,29.08
2017-04-30T08:52:13.374Z,29.36
2017-04-30T08:53:13.376Z,29.66
2017-04-30T08:54:13.406Z,29.85
2017-04-30T08:55:13.420Z,28.78
2017-04-30T08:56:13.445Z,29.17
2017-04-30T08:57:13.477Z,29.17
2017-04-30T08:58:13.551Z,28.98
2017-04-30T08:59:13.527Z,29.27
2017-04-30T09:00:13.247Z,29.36
2017-04-30T09:01:13.273Z,29.17
2017-04-30T09:02:13.636Z,29.56
2017-04-30T09:03:13.337Z,29.46
2017-04-30T09:04:13.663Z,29.38
2017-04-30T09:05:13.713Z,29.94
2017-04-30T09:06:13.725Z,30.63
2017-04-30T09:07:13.752Z,29.94
2017-04-30T09:08:13.785Z,29.77
2017-04-30T09:09:13.499Z,29.96
2017-04-30T09:10:13.840Z,29.28
2017-04-30T09:11:13.541Z,29.47
2017-04-30T09:12:13.891Z,28.8
2017-04-30T09:13:13.919Z,29.57
2017-04-30T09:14:13.948Z,29.28
2017-04-30T09:15:13.660Z,28.99
2017-04-30T09:16:13.998Z,29.19
2017-04-30T09:17:14.031Z,29.09
2017-04-30T09:18:14.056Z,29.19
2017-04-30T09:19:14.085Z,29.47
2017-04-30T09:20:14.103Z,29.77
2017-04-30T09:21:14.141Z,30.15
2017-04-30T09:22:14.168Z,30.05
2017-04-30T09:23:13.884Z,28.99
2017-04-30T09:24:14.220Z,29.96
2017-04-30T09:25:14.248Z,29.77
2017-04-30T09:26:14.278Z,30.05
2017-04-30T09:27:14.306Z,30.63
2017-04-30T09:28:14.335Z,30.63
2017-04-30T09:29:14.044Z,30.54
2017-04-30T09:30:14.069Z,30.35
2017-04-30T09:31:14.417Z,30.35
2017-04-30T09:32:14.441Z,30.35
2017-04-30T09:33:14.155Z,30.54
2017-04-30T09:34:14.189Z,30.44
2017-04-30T09:35:14.529Z,30.44
2017-04-30T09:36:14.550Z,30.44
2017-04-30T09:37:14.579Z,29.86
2017-04-30T09:38:14.610Z,29.77
2017-04-30T09:39:14.639Z,29.86
2017-04-30T09:40:14.663Z,29.47
2017-04-30T09:41:14.689Z,29.28
2017-04-30T09:42:14.726Z,29.77
2017-04-30T09:43:14.746Z,29.38
2017-04-30T09:44:14.775Z,29.57
2017-04-30T09:45:14.800Z,29.77
2017-04-30T09:46:14.832Z,30.25
2017-04-30T09:47:14.857Z,29.86
2017-04-30T09:48:14.889Z,28.61
2017-04-30T09:49:14.919Z,29.19
2017-04-30T09:50:14.630Z,29.28
2017-04-30T09:51:14.963Z,29.19
2017-04-30T09:52:14.687Z,29.47
2017-04-30T09:53:15.280Z,29.77
2017-04-30T09:54:15.050Z,30.63
2017-04-30T09:55:15.076Z,30.63
2017-04-30T09:56:15.108Z,30.54
2017-04-30T09:57:14.825Z,30.35
2017-04-30T09:58:15.419Z,30.05
2017-04-30T09:59:15.191Z,29.38
2017-04-30T10:00:15.220Z,28.99
2017-04-30T10:01:15.241Z,28.51
2017-04-30T10:02:15.274Z,28.41
2017-04-30T10:03:15.550Z,28.41
2017-04-30T10:04:15.330Z,28.7
2017-04-30T10:05:15.359Z,29.2
2017-04-30T10:06:15.068Z,29.38
2017-04-30T10:07:15.414Z,30.05
2017-04-30T10:08:15.694Z,30.54
2017-04-30T10:09:15.473Z,30.44
2017-04-30T10:10:15.492Z,30.54
2017-04-30T10:11:15.515Z,29.96
2017-04-30T10:12:15.550Z,28.8
2017-04-30T10:13:15.838Z,28.41
2017-04-30T10:14:15.610Z,28.8
2017-04-30T10:15:15.631Z,28.51
2017-04-30T10:16:15.656Z,28.8
2017-04-30T10:17:15.690Z,28.52
2017-04-30T10:18:15.974Z,29.39
2017-04-30T10:19:15.751Z,29.01
2017-04-30T10:20:15.771Z,29.59
2017-04-30T10:21:15.812Z,29.69
2017-04-30T10:22:15.836Z,29.88
2017-04-30T10:23:16.116Z,30.55
2017-04-30T10:24:15.885Z,30.63
2017-04-30T10:25:15.914Z,30.46
2017-04-30T10:26:15.944Z,29.88
2017-04-30T10:27:15.981Z,29.2
2017-04-30T10:28:15.936Z,29.3
2017-04-30T10:29:15.710Z,29.3
2017-04-30T10:30:16.054Z,29.39
2017-04-30T10:31:15.775Z,29.49
2017-04-30T10:32:16.115Z,28.72
2017-04-30T10:33:16.084Z,28.43
2017-04-30T10:34:16.168Z,28.81
2017-04-30T10:35:16.194Z,28.14
2017-04-30T10:36:15.907Z,28.23
2017-04-30T10:37:15.934Z,28.23
2017-04-30T10:38:16.221Z,28.23
2017-04-30T10:39:16.309Z,27.85
2017-04-30T10:40:16.337Z,27.75
2017-04-30T10:41:16.365Z,28.62
2017-04-30T10:42:16.388Z,28.72
2017-04-30T10:43:16.357Z,28.72
2017-04-30T10:44:16.450Z,29.3
2017-04-30T10:45:16.161Z,29.01
2017-04-30T10:46:16.504Z,29.1
2017-04-30T10:47:16.215Z,28.43
2017-04-30T10:48:16.825Z,28.14
2017-04-30T10:49:16.277Z,27.36
2017-04-30T10:50:16.609Z,27.08
2017-04-30T10:51:16.651Z,27.36
2017-04-30T10:52:16.671Z,27.85
2017-04-30T10:53:16.951Z,27.85
2017-04-30T10:54:16.728Z,28.33
2017-04-30T10:55:16.753Z,26.78
2017-04-30T10:56:16.778Z,26.98
2017-04-30T10:57:16.819Z,27.94
2017-04-30T10:58:16.776Z,28.33
2017-04-30T10:59:16.865Z,28.91
2017-04-30T11:00:16.897Z,29.39
2017-04-30T11:01:16.923Z,29.01
2017-04-30T11:02:16.954Z,29.2
2017-04-30T11:03:17.234Z,29.69
2017-04-30T11:04:17.007Z,29.49
2017-04-30T11:05:16.722Z,29.88
2017-04-30T11:06:17.066Z,29.3
2017-04-30T11:07:17.098Z,28.52
2017-04-30T11:08:17.374Z,28.52
2017-04-30T11:09:17.148Z,27.85
2017-04-30T11:10:17.180Z,28.23
2017-04-30T11:11:17.218Z,27.75
2017-04-30T11:12:17.230Z,28.15
2017-04-30T11:13:16.947Z,28.14
2017-04-30T11:14:17.290Z,28.04
2017-04-30T11:15:17.312Z,28.43
2017-04-30T11:16:17.349Z,27.76
2017-04-30T11:17:17.066Z,27.67
2017-04-30T11:18:17.407Z,27.56
2017-04-30T11:19:17.128Z,27.67
2017-04-30T11:20:17.461Z,27.96
2017-04-30T11:21:17.182Z,26.99
2017-04-30T11:22:17.522Z,27.57
2017-04-30T11:23:17.544Z,27.67
2017-04-30T11:24:17.571Z,27.96
2017-04-30T11:25:17.614Z,27.57
2017-04-30T11:26:17.633Z,27.47
2017-04-30T11:27:17.661Z,27.76
2017-04-30T11:28:17.689Z,28.25
2017-04-30T11:29:17.717Z,28.25
2017-04-30T11:30:17.436Z,28.64
2017-04-30T11:31:17.464Z,27.67
2017-04-30T11:32:17.806Z,27.78
2017-04-30T11:33:17.834Z,27.28
2017-04-30T11:34:17.860Z,27.2
2017-04-30T11:35:17.888Z,27.49
2017-04-30T11:36:17.925Z,28.26
2017-04-30T11:37:17.946Z,27.78
2017-04-30T11:38:18.009Z,28.17
2017-04-30T11:39:18.003Z,27.89
2017-04-30T11:40:18.028Z,26.82
2017-04-30T11:41:18.056Z,27.01
2017-04-30T11:42:18.090Z,26.82
2017-04-30T11:43:18.120Z,26.35
2017-04-30T11:44:18.152Z,26.45
2017-04-30T11:45:18.185Z,26.85
2017-04-30T11:46:18.207Z,26.27
2017-04-30T11:47:17.924Z,27.25
2017-04-30T11:48:18.267Z,27.06
2017-04-30T11:49:18.291Z,26.78
2017-04-30T11:50:18.328Z,26.1
2017-04-30T11:51:18.351Z,25.82
2017-04-30T11:52:18.382Z,25.63
2017-04-30T11:53:18.418Z,25.54
2017-04-30T11:54:18.447Z,25.54
2017-04-30T11:55:18.167Z,23.52
2017-04-30T11:56:18.508Z,23.71
2017-04-30T11:57:18.232Z,23.52
2017-04-30T11:58:18.570Z,22.75
2017-04-30T11:59:18.601Z,23.24
2017-04-30T12:00:18.635Z,22.86
2017-04-30T12:01:18.660Z,22.76
2017-04-30T12:02:18.692Z,23.83
2017-04-30T12:03:18.414Z,23.16
2017-04-30T12:04:18.758Z,22.87
2017-04-30T12:05:18.472Z,23.25
2017-04-30T12:06:18.827Z,24.05
2017-04-30T12:07:18.538Z,22.69
2017-04-30T12:08:18.882Z,22.97
2017-04-30T12:09:18.911Z,22.21
2017-04-30T12:10:18.942Z,22.11
2017-04-30T12:11:18.980Z,22.02
2017-04-30T12:12:19.008Z,21.62
2017-04-30T12:13:19.036Z,21.44
2017-04-30T12:14:19.075Z,20.95
2017-04-30T12:15:19.103Z,21.15
2017-04-30T12:16:19.139Z,20.86
2017-04-30T12:17:19.164Z,20.09
2017-04-30T12:18:19.193Z,20.28
2017-04-30T12:19:19.230Z,20.09
2017-04-30T12:20:19.270Z,20.09
2017-04-30T12:21:19.295Z,20
2017-04-30T12:22:19.324Z,20
2017-04-30T12:23:19.361Z,19.31
2017-04-30T12:24:19.393Z,19.91
2017-04-30T12:25:19.113Z,19.52
2017-04-30T12:26:19.455Z,18.74
2017-04-30T12:27:19.492Z,19.13
2017-04-30T12:28:19.528Z,19.14
2017-04-30T12:29:19.557Z,18.75
2017-04-30T12:30:19.279Z,18.75
2017-04-30T12:31:19.303Z,18.46
2017-04-30T12:32:19.349Z,18.16
2017-04-30T12:33:19.375Z,18.55
2017-04-30T12:34:19.669Z,18.85
2017-04-30T12:35:19.758Z,18.26
2017-04-30T12:36:19.474Z,17.97
2017-04-30T12:37:19.823Z,18.07
2017-04-30T12:38:19.848Z,18.26
2017-04-30T12:39:20.143Z,18.46
2017-04-30T12:40:19.926Z,19.13
2017-04-30T12:41:19.951Z,18.85
2017-04-30T12:42:19.668Z,18.85
2017-04-30T12:43:20.020Z,19.14
2017-04-30T12:44:20.301Z,18.07
2017-04-30T12:45:20.090Z,17.77
2017-04-30T12:46:20.122Z,17.77
2017-04-30T12:47:19.843Z,17.97
2017-04-30T12:48:19.876Z,17.58
2017-04-30T12:49:20.472Z,18.16
2017-04-30T12:50:20.258Z,17.97
2017-04-30T12:51:19.977Z,18.07
2017-04-30T12:52:20.314Z,18.07
2017-04-30T12:53:20.048Z,17.78
2017-04-30T12:54:20.641Z,18.07
2017-04-30T12:55:20.421Z,18.07
2017-04-30T12:56:20.146Z,18.18
2017-04-30T12:57:20.493Z,17.3